Time;durP1;ratioP1;P1;durP2;ratioP2;P2;SDS_P1;SDS_P2;PMS_P1;PMS_P2;Temp;Humidity;BMP_temperature;BMP_pressure;BME280_temperature;BME280_humidity;BME280_pressure;Samples;Min_cycle;Max_cycle;Signal;HPM_P1;HPM_P2
2021/05/30 00:01:58;;;;;;;5.13;4.10;;;22.90;59.40;;;;;;5053089;28;20021;-36
2021/05/30 00:04:24;;;;;;;4.30;3.97;;;22.90;59.40;;;;;;5051494;28;20529;-41
2021/05/30 00:06:49;;;;;;;3.72;3.42;;;22.90;59.50;;;;;;5057137;28;20029;-35
2021/05/30 00:09:15;;;;;;;4.18;3.88;;;22.90;59.30;;;;;;5054185;28;20033;-33
2021/05/30 00:11:40;;;;;;;4.68;4.25;;;22.90;60.00;;;;;;5055824;28;20033;-37
2021/05/30 00:14:06;;;;;;;4.00;3.70;;;22.90;59.40;;;;;;5056000;28;20067;-36
2021/05/30 00:16:32;;;;;;;3.75;3.55;;;22.80;59.30;;;;;;5052643;28;20033;-37
2021/05/30 00:18:58;;;;;;;4.32;4.03;;;22.80;59.30;;;;;;5054493;28;20037;-36
2021/05/30 00:21:24;;;;;;;3.78;3.58;;;22.80;59.30;;;;;;5055932;28;20107;-34
2021/05/30 00:23:49;;;;;;;4.20;3.95;;;22.80;59.30;;;;;;5058960;28;20730;-34
2021/05/30 00:26:15;;;;;;;3.58;3.38;;;22.80;59.20;;;;;;5064307;28;20040;-35
2021/05/30 00:28:41;;;;;;;3.65;3.35;;;22.90;59.10;;;;;;5054550;28;20029;-35
2021/05/30 00:31:06;;;;;;;3.78;3.47;;;22.90;59.10;;;;;;5053708;28;20484;-35
2021/05/30 00:33:32;;;;;;;3.65;3.45;;;22.90;59.20;;;;;;5057497;28;20033;-35
2021/05/30 00:35:57;;;;;;;3.63;3.42;;;22.80;59.20;;;;;;5055680;28;20048;-36
2021/05/30 00:38:23;;;;;;;3.60;3.40;;;22.80;59.20;;;;;;5055803;28;20644;-35
2021/05/30 00:40:48;;;;;;;3.97;3.67;;;22.80;59.30;;;;;;5054979;28;20056;-35
2021/05/30 00:43:14;;;;;;;3.78;3.47;;;22.80;59.20;;;;;;5052432;28;20082;-36
2021/05/30 00:45:39;;;;;;;3.70;3.50;;;22.80;59.20;;;;;;5057126;28;20163;-35
2021/05/30 00:48:05;;;;;;;3.63;3.30;;;22.80;59.30;;;;;;5054437;28;20120;-35
2021/05/30 00:50:31;;;;;;;3.83;3.63;;;22.80;59.20;;;;;;5055399;28;20534;-35
2021/05/30 00:52:57;;;;;;;4.03;3.70;;;22.80;59.20;;;;;;5055425;28;20021;-33
2021/05/30 00:55:24;;;;;;;3.72;3.45;;;22.80;59.30;;;;;;5048447;28;20033;-36
2021/05/30 00:57:50;;;;;;;3.10;2.90;;;22.70;59.40;;;;;;5051662;28;20033;-35
2021/05/30 01:00:16;;;;;;;3.45;3.25;;;22.80;59.30;;;;;;5055677;28;20048;-35
2021/05/30 01:02:42;;;;;;;3.63;3.35;;;22.70;59.30;;;;;;5055012;28;20118;-34
2021/05/30 01:05:08;;;;;;;3.72;3.53;;;22.80;59.30;;;;;;5054907;28;20029;-35
2021/05/30 01:07:46;;;;;;;3.53;3.33;;;22.70;59.50;;;;;;5052252;28;20518;-35
2021/05/30 01:10:34;;;;;;;3.72;3.28;;;22.70;59.40;;;;;;5051811;28;20033;-35
2021/05/30 01:13:00;;;;;;;3.50;3.30;;;22.70;59.50;;;;;;5047721;28;20024;-35
2021/05/30 01:15:26;;;;;;;4.05;3.65;;;22.70;59.40;;;;;;5056805;28;20017;-35
2021/05/30 01:17:53;;;;;;;4.00;3.80;;;22.70;59.30;;;;;;5055368;28;20033;-35
2021/05/30 01:20:19;;;;;;;4.10;3.85;;;22.70;59.40;;;;;;5054626;28;20032;-35
2021/05/30 01:22:45;;;;;;;3.97;3.78;;;22.70;59.40;;;;;;5053548;28;20032;-35
2021/05/30 01:25:11;;;;;;;3.60;3.40;;;22.70;59.40;;;;;;5052256;28;20029;-35
2021/05/30 01:27:37;;;;;;;4.10;3.90;;;22.70;59.40;;;;;;5056612;28;20040;-35
2021/05/30 01:30:04;;;;;;;3.85;3.55;;;22.70;59.50;;;;;;5054603;28;20029;-35
2021/05/30 01:32:30;;;;;;;3.60;3.40;;;22.70;59.50;;;;;;5055052;28;20025;-35
2021/05/30 01:34:55;;;;;;;4.43;4.13;;;22.70;59.30;;;;;;5054739;28;20032;-35
2021/05/30 01:37:21;;;;;;;3.88;3.63;;;22.70;59.30;;;;;;5050545;28;20078;-35
2021/05/30 01:39:46;;;;;;;3.90;3.63;;;22.70;59.30;;;;;;5056897;28;20036;-35
2021/05/30 01:42:12;;;;;;;3.80;3.60;;;22.60;59.30;;;;;;5054493;28;20387;-35
2021/05/30 01:44:38;;;;;;;3.90;3.60;;;22.60;59.40;;;;;;5054840;28;20043;-35
2021/05/30 01:47:03;;;;;;;3.95;3.75;;;22.60;59.20;;;;;;5033724;28;20444;-35
2021/05/30 01:49:29;;;;;;;3.15;2.85;;;22.60;59.10;;;;;;5051124;28;20032;-34
2021/05/30 01:51:54;;;;;;;4.13;3.83;;;22.60;59.10;;;;;;5053964;28;20104;-40
2021/05/30 01:54:20;;;;;;;3.80;3.60;;;22.60;59.20;;;;;;5056097;28;20717;-36
2021/05/30 01:56:55;;;;;;;3.70;3.50;;;22.60;59.10;;;;;;5054420;28;20056;-36
2021/05/30 01:59:21;;;;;;;3.40;3.20;;;22.60;58.90;;;;;;5054312;28;20151;-33
2021/05/30 02:01:49;;;;;;;3.42;3.22;;;22.60;59.10;;;;;;5053696;28;20051;-38
2021/05/30 02:04:14;;;;;;;3.60;3.40;;;22.60;59.00;;;;;;5032578;28;20036;-38
2021/05/30 02:06:43;;;;;;;3.42;3.13;;;22.60;59.70;;;;;;5055883;28;20090;-39
2021/05/30 02:09:11;;;;;;;3.75;3.55;;;22.60;58.90;;;;;;5053977;28;20049;-36
2021/05/30 02:11:38;;;;;;;3.80;3.60;;;22.60;58.80;;;;;;5053049;28;20043;-33
2021/05/30 02:14:03;;;;;;;3.78;3.58;;;22.60;58.80;;;;;;5053863;28;20026;-35
2021/05/30 02:16:29;;;;;;;3.63;3.42;;;22.60;58.80;;;;;;5050688;28;20037;-33
2021/05/30 02:18:55;;;;;;;3.67;3.42;;;22.60;58.70;;;;;;5053134;28;20039;-35
2021/05/30 02:21:21;;;;;;;3.40;3.20;;;22.60;58.70;;;;;;5055520;28;20036;-32
2021/05/30 02:23:46;;;;;;;3.70;3.50;;;22.60;58.70;;;;;;5053363;28;20039;-35
2021/05/30 02:26:12;;;;;;;3.80;3.60;;;22.60;58.70;;;;;;5053493;28;20115;-35
2021/05/30 02:28:37;;;;;;;3.63;3.42;;;22.60;58.70;;;;;;5051447;28;20025;-34
2021/05/30 02:31:03;;;;;;;3.83;3.47;;;22.60;58.80;;;;;;5052068;28;20033;-35
2021/05/30 02:33:28;;;;;;;3.95;3.75;;;22.60;58.90;;;;;;5054927;28;20479;-34
2021/05/30 02:35:55;;;;;;;3.85;3.65;;;22.50;58.80;;;;;;5053384;28;20514;-34
2021/05/30 02:38:21;;;;;;;4.32;4.03;;;22.50;58.70;;;;;;5053334;28;20033;-35
2021/05/30 02:40:46;;;;;;;4.05;3.85;;;22.50;59.30;;;;;;5052355;28;20106;-34
2021/05/30 02:43:12;;;;;;;3.85;3.65;;;22.50;58.70;;;;;;5050301;28;20156;-35
2021/05/30 02:45:37;;;;;;;5.75;3.78;;;22.60;58.70;;;;;;5055430;28;20498;-35
2021/05/30 02:48:03;;;;;;;3.35;3.15;;;22.50;58.60;;;;;;5053339;28;20084;-34
2021/05/30 02:50:29;;;;;;;3.85;3.65;;;22.60;58.60;;;;;;5053484;28;20033;-34
2021/05/30 02:52:54;;;;;;;4.18;3.80;;;22.60;58.60;;;;;;5053751;28;20043;-36
2021/05/30 02:55:20;;;;;;;3.58;3.28;;;22.60;58.60;;;;;;5033146;28;20025;-41
2021/05/30 02:57:45;;;;;;;3.53;3.33;;;22.50;58.60;;;;;;5054978;28;20028;-36
2021/05/30 03:00:11;;;;;;;3.45;3.25;;;22.60;58.70;;;;;;5053156;28;20461;-34
2021/05/30 03:02:37;;;;;;;3.58;3.38;;;22.50;58.80;;;;;;5057277;28;20024;-34
2021/05/30 03:05:07;;;;;;;3.72;3.42;;;22.50;58.70;;;;;;5063027;28;20055;-35
2021/05/30 03:07:32;;;;;;;3.80;3.50;;;22.50;58.60;;;;;;5049747;28;20533;-34
2021/05/30 03:09:58;;;;;;;3.90;3.70;;;22.50;58.60;;;;;;5051684;28;20072;-35
2021/05/30 03:12:24;;;;;;;3.75;3.55;;;22.50;58.60;;;;;;5053089;28;20438;-35
2021/05/30 03:14:49;;;;;;;4.15;3.85;;;22.60;59.20;;;;;;5052795;28;20048;-34
2021/05/30 03:17:15;;;;;;;3.80;3.60;;;22.50;58.50;;;;;;5052716;28;20075;-35
2021/05/30 03:19:40;;;;;;;3.70;3.50;;;22.50;58.50;;;;;;5050951;28;20040;-34
2021/05/30 03:22:06;;;;;;;3.72;3.42;;;22.50;58.60;;;;;;5050538;28;20380;-35
2021/05/30 03:24:32;;;;;;;4.03;3.72;;;22.50;58.40;;;;;;5052334;28;20044;-34
2021/05/30 03:26:57;;;;;;;3.58;3.38;;;22.50;58.40;;;;;;5052901;28;20531;-34
2021/05/30 03:29:23;;;;;;;3.78;3.58;;;22.50;58.40;;;;;;5052750;28;20021;-34
2021/05/30 03:31:48;;;;;;;4.53;4.13;;;22.50;58.20;;;;;;5052132;28;20029;-34
2021/05/30 03:34:14;;;;;;;3.40;3.20;;;22.50;58.30;;;;;;5049235;28;20063;-36
2021/05/30 03:36:41;;;;;;;3.50;3.30;;;22.40;58.30;;;;;;5069724;28;20036;-34
2021/05/30 03:39:07;;;;;;;3.75;3.55;;;22.50;58.90;;;;;;5052695;28;20462;-34
2021/05/30 03:41:38;;;;;;;3.22;3.00;;;22.40;58.30;;;;;;5052819;28;20447;-35
2021/05/30 03:44:05;;;;;;;3.38;3.17;;;22.40;58.20;;;;;;5052364;28;20017;-34
2021/05/30 03:46:31;;;;;;;3.17;3.08;;;22.40;58.10;;;;;;5049380;28;20036;-34
2021/05/30 03:48:56;;;;;;;3.20;3.00;;;22.50;57.90;;;;;;5051516;28;20029;-35
2021/05/30 03:51:22;;;;;;;2.80;2.60;;;22.50;58.00;;;;;;5053832;28;20021;-35
2021/05/30 03:53:48;;;;;;;3.05;2.85;;;22.50;58.00;;;;;;5052684;28;20036;-35
2021/05/30 03:56:13;;;;;;;3.50;3.30;;;22.40;58.00;;;;;;5052627;28;20528;-35
2021/05/30 03:58:39;;;;;;;3.00;2.80;;;22.40;57.90;;;;;;5049071;28;20033;-32
2021/05/30 04:01:04;;;;;;;3.28;3.08;;;22.40;57.80;;;;;;5050479;28;20130;-36
2021/05/30 04:03:30;;;;;;;2.90;2.80;;;22.40;57.70;;;;;;5053722;28;20483;-34
2021/05/30 04:05:56;;;;;;;2.95;2.75;;;22.50;57.70;;;;;;5052542;28;20391;-35
2021/05/30 04:08:23;;;;;;;2.58;2.47;;;22.40;57.60;;;;;;5052109;28;20036;-33
2021/05/30 04:10:48;;;;;;;2.70;2.60;;;22.40;57.70;;;;;;5051574;28;20052;-35
2021/05/30 04:13:14;;;;;;;3.10;2.90;;;22.40;57.60;;;;;;5048508;28;20057;-34
2021/05/30 04:15:40;;;;;;;2.80;2.60;;;22.50;57.40;;;;;;5053915;28;20155;-35
2021/05/30 04:18:05;;;;;;;2.60;2.50;;;22.40;57.50;;;;;;5052365;28;20024;-34
2021/05/30 04:20:31;;;;;;;2.63;2.45;;;22.40;57.40;;;;;;5052307;28;20026;-34
2021/05/30 04:22:56;;;;;;;2.40;2.28;;;22.30;57.30;;;;;;5052586;28;20029;-35
2021/05/30 04:25:22;;;;;;;2.70;2.50;;;22.40;58.10;;;;;;5048101;28;20551;-34
2021/05/30 04:27:48;;;;;;;3.03;2.83;;;22.40;57.40;;;;;;5053698;28;20541;-34
2021/05/30 04:30:14;;;;;;;2.88;2.67;;;22.30;57.50;;;;;;5051842;28;20022;-35
2021/05/30 04:32:40;;;;;;;2.50;2.40;;;22.40;57.50;;;;;;5050893;28;20086;-35
2021/05/30 04:35:06;;;;;;;2.70;2.60;;;22.40;57.50;;;;;;5052088;28;20492;-34
2021/05/30 04:37:32;;;;;;;2.78;2.67;;;22.30;57.50;;;;;;5029312;28;20040;-34
2021/05/30 04:39:57;;;;;;;2.65;2.45;;;22.40;57.50;;;;;;5051302;28;20033;-34
2021/05/30 04:42:23;;;;;;;2.50;2.40;;;22.30;57.50;;;;;;5053122;28;20060;-35
2021/05/30 04:44:49;;;;;;;2.38;2.28;;;22.30;57.40;;;;;;5051920;28;20087;-35
2021/05/30 04:47:14;;;;;;;2.40;2.30;;;22.30;57.60;;;;;;5051881;28;20105;-35
2021/05/30 04:49:40;;;;;;;2.30;2.20;;;22.30;57.50;;;;;;5053447;28;20033;-34
2021/05/30 04:52:07;;;;;;;2.30;2.20;;;22.30;57.70;;;;;;5053774;28;20082;-35
2021/05/30 04:54:32;;;;;;;2.55;2.38;;;22.30;57.50;;;;;;5052028;28;20063;-34
2021/05/30 04:56:58;;;;;;;2.38;2.28;;;22.30;57.50;;;;;;5055207;28;20099;-35
2021/05/30 04:59:23;;;;;;;2.42;2.33;;;22.30;57.50;;;;;;5055455;28;20041;-35
2021/05/30 05:01:50;;;;;;;2.60;2.40;;;22.30;57.20;;;;;;5055108;28;20173;-34
2021/05/30 05:04:16;;;;;;;2.63;2.42;;;22.30;57.20;;;;;;5051479;28;20033;-34
2021/05/30 05:06:41;;;;;;;2.67;2.58;;;22.30;57.20;;;;;;5057112;28;20414;-34
2021/05/30 05:09:07;;;;;;;2.40;2.30;;;22.30;57.20;;;;;;5055551;28;20075;-35
2021/05/30 05:11:33;;;;;;;2.40;2.30;;;22.30;57.20;;;;;;5054933;28;20075;-34
2021/05/30 05:13:58;;;;;;;2.70;2.60;;;22.30;57.20;;;;;;5055297;28;20078;-34
2021/05/30 05:16:24;;;;;;;8.02;2.45;;;22.30;57.10;;;;;;5050694;28;20029;-35
2021/05/30 05:18:50;;;;;;;2.80;2.60;;;22.30;57.10;;;;;;5056894;28;20036;-34
2021/05/30 05:21:15;;;;;;;2.30;2.20;;;22.30;57.20;;;;;;5055268;28;20021;-35
2021/05/30 05:23:41;;;;;;;2.45;2.35;;;22.30;57.20;;;;;;5055267;28;20403;-36
2021/05/30 05:26:06;;;;;;;2.00;1.90;;;22.20;57.20;;;;;;5054587;28;20066;-36
2021/05/30 05:28:32;;;;;;;2.15;2.05;;;22.30;57.20;;;;;;5052028;28;20029;-35
2021/05/30 05:30:58;;;;;;;2.72;2.53;;;22.20;56.90;;;;;;5052989;28;20535;-35
2021/05/30 05:33:24;;;;;;;2.60;2.40;;;22.20;57.00;;;;;;5064419;28;20391;-35
2021/05/30 05:35:50;;;;;;;2.42;2.33;;;22.20;56.90;;;;;;5054924;28;20036;-35
2021/05/30 05:38:15;;;;;;;2.67;2.40;;;22.20;57.00;;;;;;5053306;28;20499;-36
2021/05/30 05:40:41;;;;;;;2.20;2.10;;;22.20;57.00;;;;;;5066046;28;20356;-34
2021/05/30 05:43:07;;;;;;;2.20;2.05;;;22.20;57.00;;;;;;5052351;28;20014;-35
2021/05/30 05:45:33;;;;;;;2.50;2.40;;;22.20;57.10;;;;;;5052668;28;20118;-35
2021/05/30 05:47:59;;;;;;;2.03;1.92;;;22.20;56.90;;;;;;5036788;28;20029;-34
2021/05/30 05:50:25;;;;;;;2.10;2.00;;;22.20;58.00;;;;;;5055142;28;20027;-35
2021/05/30 05:52:51;;;;;;;2.72;2.63;;;22.20;57.50;;;;;;5053884;28;20505;-35
2021/05/30 05:55:18;;;;;;;2.17;2.08;;;22.20;57.90;;;;;;5050708;28;20040;-34
2021/05/30 05:57:43;;;;;;;2.15;2.05;;;22.20;57.90;;;;;;5055891;28;20100;-36
2021/05/30 06:00:11;;;;;;;2.15;2.05;;;22.20;57.80;;;;;;5054402;28;20152;-34
2021/05/30 06:02:37;;;;;;;2.20;2.10;;;22.20;57.80;;;;;;5054365;28;20495;-35
2021/05/30 06:05:04;;;;;;;2.42;2.33;;;22.20;57.50;;;;;;5054088;28;20083;-35
2021/05/30 06:07:30;;;;;;;2.25;2.15;;;22.20;57.80;;;;;;5050533;28;20052;-36
2021/05/30 06:09:55;;;;;;;2.20;2.10;;;22.20;58.00;;;;;;5053299;28;20157;-36
2021/05/30 06:12:21;;;;;;;2.20;2.00;;;22.30;58.10;;;;;;5055323;28;20517;-38
2021/05/30 06:14:47;;;;;;;2.72;2.60;;;22.10;58.30;;;;;;5054600;28;20025;-33
2021/05/30 06:17:12;;;;;;;2.70;2.40;;;22.20;58.80;;;;;;5054053;28;20025;-37
2021/05/30 06:19:38;;;;;;;2.90;2.70;;;22.30;58.40;;;;;;5051814;28;20047;-34
2021/05/30 06:22:04;;;;;;;2.90;2.80;;;22.50;58.30;;;;;;5052900;28;20021;-34
2021/05/30 06:24:30;;;;;;;2.90;2.80;;;22.60;58.60;;;;;;5055126;28;20502;-34
2021/05/30 06:26:56;;;;;;;2.40;2.30;;;22.70;57.80;;;;;;5053855;28;20503;-36
2021/05/30 06:29:21;;;;;;;2.53;2.42;;;22.60;57.70;;;;;;5046765;28;20570;-35
2021/05/30 06:31:47;;;;;;;2.47;2.38;;;22.40;58.00;;;;;;5049829;28;20016;-36
2021/05/30 06:34:15;;;;;;;2.33;2.13;;;22.40;58.00;;;;;;5048835;28;20029;-35
2021/05/30 06:36:42;;;;;;;2.30;2.17;;;22.30;58.30;;;;;;5052220;28;20037;-35
2021/05/30 06:39:08;;;;;;;2.40;2.30;;;22.30;58.40;;;;;;5049927;28;20043;-35
2021/05/30 06:41:34;;;;;;;2.35;2.25;;;22.20;58.70;;;;;;5050628;28;20558;-35
2021/05/30 06:44:00;;;;;;;2.35;2.25;;;22.20;58.60;;;;;;5046904;28;20037;-34
2021/05/30 06:46:26;;;;;;;2.40;2.30;;;22.20;58.60;;;;;;5048784;28;20039;-34
2021/05/30 06:48:52;;;;;;;2.38;2.28;;;22.30;58.60;;;;;;5034206;28;20109;-35
2021/05/30 06:51:18;;;;;;;2.30;2.20;;;22.50;59.20;;;;;;5050517;28;20050;-36
2021/05/30 06:53:48;;;;;;;2.33;2.22;;;22.60;58.30;;;;;;5049982;28;20454;-34
2021/05/30 06:56:14;;;;;;;2.58;2.25;;;22.70;58.00;;;;;;5050550;28;20056;-35
2021/05/30 06:58:40;;;;;;;2.50;2.30;;;22.80;58.40;;;;;;5049700;28;20064;-37
2021/05/30 07:01:05;;;;;;;2.15;2.05;;;22.70;57.40;;;;;;5050077;28;20053;-33
2021/05/30 07:03:31;;;;;;;2.28;2.17;;;22.60;57.50;;;;;;5035362;28;20036;-38
2021/05/30 07:05:57;;;;;;;2.55;2.45;;;22.60;57.30;;;;;;5051541;28;20474;-37
2021/05/30 07:08:24;;;;;;;2.28;2.08;;;22.50;57.30;;;;;;5050483;28;20105;-35
2021/05/30 07:10:49;;;;;;;2.20;2.10;;;22.50;57.40;;;;;;5030848;28;20024;-35
2021/05/30 07:13:15;;;;;;;2.35;2.25;;;22.40;57.70;;;;;;5049584;28;20032;-41
2021/05/30 07:15:40;;;;;;;2.00;1.90;;;22.20;58.00;;;;;;5053960;28;20384;-36
2021/05/30 07:18:06;;;;;;;2.05;1.95;;;22.20;58.00;;;;;;5052819;28;20031;-32
2021/05/30 07:20:32;;;;;;;1.95;1.85;;;22.20;57.90;;;;;;5052367;28;20437;-37
2021/05/30 07:22:57;;;;;;;2.92;2.00;;;22.20;57.90;;;;;;5049575;28;20052;-34
2021/05/30 07:25:23;;;;;;;1.65;1.55;;;22.20;57.90;;;;;;5050704;28;20032;-33
2021/05/30 07:27:50;;;;;;;2.10;2.00;;;22.20;57.60;;;;;;5054577;28;20029;-34
2021/05/30 07:30:16;;;;;;;2.10;1.90;;;22.20;58.00;;;;;;5048961;28;20107;-39
2021/05/30 07:32:42;;;;;;;2.03;1.90;;;22.20;57.80;;;;;;5047117;28;20029;-39
2021/05/30 07:35:08;;;;;;;2.08;1.98;;;22.20;57.70;;;;;;5052381;28;20528;-37
2021/05/30 07:37:33;;;;;;;1.95;1.85;;;22.20;57.90;;;;;;5049407;28;20066;-38
2021/05/30 07:39:59;;;;;;;2.00;1.90;;;22.10;58.00;;;;;;5046348;28;20031;-36
2021/05/30 07:42:24;;;;;;;2.33;2.13;;;22.10;58.20;;;;;;5051674;28;20047;-34
2021/05/30 07:44:50;;;;;;;1.83;1.73;;;22.10;58.10;;;;;;5052167;28;20033;-35
2021/05/30 07:47:15;;;;;;;2.10;2.00;;;22.10;58.00;;;;;;5052369;28;20090;-37
2021/05/30 07:49:41;;;;;;;2.00;1.90;;;22.20;57.80;;;;;;5048517;28;20115;-37
2021/05/30 07:52:07;;;;;;;2.13;2.00;;;22.20;57.60;;;;;;5037689;28;20028;-36
2021/05/30 07:54:33;;;;;;;2.15;2.05;;;22.20;57.60;;;;;;5031280;28;20029;-34
2021/05/30 07:56:58;;;;;;;1.88;1.75;;;22.30;57.40;;;;;;5051046;28;20029;-34
2021/05/30 07:59:24;;;;;;;1.83;1.73;;;22.50;57.30;;;;;;5046459;28;20037;-38
2021/05/30 08:01:51;;;;;;;1.95;1.85;;;22.50;56.70;;;;;;5048826;28;20033;-36
2021/05/30 08:04:16;;;;;;;2.30;1.80;;;22.70;57.60;;;;;;5043625;28;20040;-34
2021/05/30 08:06:42;;;;;;;1.40;1.40;;;22.80;57.80;;;;;;5045514;28;20036;-37
2021/05/30 08:09:08;;;;;;;1.80;1.70;;;22.70;57.90;;;;;;5046490;28;20045;-42
2021/05/30 08:11:33;;;;;;;2.17;1.50;;;22.80;57.90;;;;;;5042433;28;20037;-37
2021/05/30 08:13:59;;;;;;;1.40;1.30;;;22.80;58.30;;;;;;5045519;28;20052;-37
2021/05/30 08:16:24;;;;;;;1.90;1.70;;;22.90;58.00;;;;;;5042720;28;20025;-33
2021/05/30 08:18:50;;;;;;;2.35;1.50;;;22.90;57.90;;;;;;5043637;28;20041;-36
2021/05/30 08:21:16;;;;;;;1.75;1.65;;;22.80;58.10;;;;;;5044553;28;20009;-34
2021/05/30 08:23:43;;;;;;;2.17;2.00;;;22.80;58.30;;;;;;5047101;28;20041;-34
2021/05/30 08:26:09;;;;;;;1.90;1.80;;;22.80;58.20;;;;;;5027957;28;20045;-39
2021/05/30 08:28:35;;;;;;;1.55;1.45;;;22.80;58.10;;;;;;5034689;28;20162;-37
2021/05/30 08:31:01;;;;;;;1.80;1.70;;;22.90;57.90;;;;;;4699318;28;10000396;-38
2021/05/30 08:33:27;;;;;;;1.67;1.58;;;23.00;57.70;;;;;;5054609;28;20029;-35
2021/05/30 08:35:53;;;;;;;1.70;1.60;;;23.10;57.50;;;;;;5052969;28;20028;-37
2021/05/30 08:38:19;;;;;;;2.28;1.83;;;23.00;57.80;;;;;;5052862;28;20024;-36
2021/05/30 08:40:45;;;;;;;1.83;1.63;;;23.00;57.80;;;;;;5042008;28;20151;-36
2021/05/30 08:43:11;;;;;;;1.80;1.70;;;22.90;58.00;;;;;;5010496;28;20033;-36
2021/05/30 08:45:36;;;;;;;1.90;1.80;;;23.00;57.80;;;;;;5048423;28;20513;-37
2021/05/30 08:48:02;;;;;;;2.15;1.58;;;23.00;57.90;;;;;;5047984;28;20179;-36
2021/05/30 08:50:28;;;;;;;1.98;1.88;;;22.90;58.00;;;;;;5046983;28;20044;-37
2021/05/30 08:52:53;;;;;;;1.80;1.70;;;22.90;58.10;;;;;;5047002;28;20560;-41
2021/05/30 08:55:19;;;;;;;1.80;1.70;;;22.90;58.10;;;;;;5046159;28;20033;-37
2021/05/30 08:57:45;;;;;;;1.88;1.77;;;22.90;58.40;;;;;;5049184;28;20028;-40
2021/05/30 09:00:11;;;;;;;1.65;1.60;;;22.80;58.40;;;;;;5050436;28;20087;-35
2021/05/30 09:02:37;;;;;;;2.22;1.63;;;22.80;58.60;;;;;;5026782;28;20041;-35
2021/05/30 09:05:06;;;;;;;1.45;1.35;;;22.80;58.60;;;;;;5047812;28;20601;-35
2021/05/30 09:07:42;;;;;;;1.90;1.70;;;22.80;58.30;;;;;;5045154;28;20029;-36
2021/05/30 09:10:15;;;;;;;2.00;1.90;;;23.00;58.00;;;;;;5045183;28;20075;-38
2021/05/30 09:12:42;;;;;;;1.67;1.58;;;23.00;57.30;;;;;;5032520;28;20059;-38
2021/05/30 09:15:12;;;;;;;2.17;1.55;;;23.10;57.90;;;;;;5050170;28;20102;-36
2021/05/30 09:17:38;;;;;;;2.08;1.48;;;23.10;57.80;;;;;;5048439;28;20115;-35
2021/05/30 09:20:05;;;;;;;2.35;1.80;;;23.20;57.80;;;;;;5049238;28;20104;-37
2021/05/30 09:22:35;;;;;;;1.48;1.42;;;23.20;57.70;;;;;;5046902;28;20032;-38
2021/05/30 09:25:18;;;;;;;2.88;1.70;;;23.40;57.40;;;;;;5046724;28;20033;-37
2021/05/30 09:27:47;;;;;;;1.95;1.85;;;23.30;57.40;;;;;;5051723;28;20040;-36
2021/05/30 09:30:27;;;;;;;2.00;1.80;;;23.40;57.10;;;;;;5047709;28;20529;-36
2021/05/30 09:33:18;;;;;;;1.60;1.50;;;23.40;57.20;;;;;;5051594;28;20040;-35
2021/05/30 09:35:44;;;;;;;1.30;1.30;;;23.50;57.30;;;;;;5048486;28;20904;-36
2021/05/30 09:38:14;;;;;;;1.60;1.50;;;23.50;57.10;;;;;;5046284;28;20032;-36
2021/05/30 09:40:46;;;;;;;1.40;1.30;;;23.50;57.00;;;;;;5045878;28;20075;-38
2021/05/30 09:43:13;;;;;;;1.80;1.70;;;23.60;56.90;;;;;;5046190;28;20037;-40
2021/05/30 09:45:39;;;;;;;1.80;1.70;;;23.60;56.80;;;;;;5048816;28;20080;-37
2021/05/30 09:48:19;;;;;;;1.95;1.60;;;23.70;56.80;;;;;;5047213;28;20056;-36
2021/05/30 09:51:02;;;;;;;1.50;1.40;;;23.70;56.80;;;;;;5048522;28;20029;-35
2021/05/30 09:53:48;;;;;;;1.40;1.30;;;23.70;56.80;;;;;;5029526;28;20557;-35
2021/05/30 09:56:29;;;;;;;1.58;1.48;;;23.70;57.20;;;;;;5028810;28;20498;-37
2021/05/30 09:58:55;;;;;;;3.20;1.38;;;23.80;56.60;;;;;;5048300;28;20028;-41
2021/05/30 10:01:21;;;;;;;1.45;1.35;;;23.80;56.60;;;;;;5047375;28;20135;-40
2021/05/30 10:03:46;;;;;;;1.30;1.30;;;23.90;56.50;;;;;;5031398;28;20108;-37
2021/05/30 10:06:15;;;;;;;2.28;1.45;;;23.90;56.20;;;;;;5049112;28;20099;-38
2021/05/30 10:08:40;;;;;;;1.50;1.40;;;24.00;56.30;;;;;;5030014;28;20033;-41
2021/05/30 10:11:06;;;;;;;1.85;1.00;;;24.10;56.10;;;;;;5047750;28;20040;-37
2021/05/30 10:13:32;;;;;;;1.77;1.67;;;24.00;55.80;;;;;;5048606;28;20087;-37
2021/05/30 10:15:59;;;;;;;1.25;1.25;;;24.10;56.60;;;;;;5050750;28;20021;-41
2021/05/30 10:18:34;;;;;;;1.13;1.13;;;24.20;55.90;;;;;;5051998;28;20025;-37
2021/05/30 10:20:59;;;;;;;1.35;1.25;;;24.10;55.80;;;;;;5028900;28;20032;-39
2021/05/30 10:23:25;;;;;;;1.48;1.38;;;24.20;55.80;;;;;;5035735;28;20394;-42
2021/05/30 10:25:51;;;;;;;1.70;1.60;;;24.30;55.70;;;;;;5032082;28;20039;-40
2021/05/30 10:28:18;;;;;;;1.40;1.40;;;24.30;55.40;;;;;;5031679;28;20614;-36
2021/05/30 10:30:49;;;;;;;3.35;1.45;;;24.30;55.30;;;;;;5050490;28;20056;-36
2021/05/30 10:33:19;;;;;;;1.20;1.20;;;24.30;55.40;;;;;;5046541;28;20067;-36
2021/05/30 10:35:48;;;;;;;1.60;1.50;;;24.30;55.30;;;;;;5027178;28;20575;-36
2021/05/30 10:38:39;;;;;;;1.50;1.40;;;24.30;55.10;;;;;;5047428;28;20688;-32
2021/05/30 10:41:19;;;;;;;1.20;1.10;;;24.40;55.30;;;;;;5044029;28;20021;-42
2021/05/30 10:43:45;;;;;;;1.30;1.15;;;24.40;55.10;;;;;;5046764;28;20016;-38
2021/05/30 10:46:11;;;;;;;4.18;1.70;;;24.40;54.80;;;;;;5045645;28;20043;-35
2021/05/30 10:48:38;;;;;;;1.50;1.40;;;24.50;54.50;;;;;;5050029;28;20029;-41
2021/05/30 10:53:36;;;;;;;5.20;3.20;;;24.50;54.20;;;;;;5050111;28;20055;-34
2021/05/30 10:56:22;;;;;;;7.75;3.15;;;24.50;53.60;;;;;;5046435;28;20029;-39
2021/05/30 10:59:03;;;;;;;5.00;3.25;;;24.60;53.20;;;;;;5044749;28;20029;-41
2021/05/30 11:01:35;;;;;;;8.82;3.20;;;24.60;53.50;;;;;;5047017;28;20040;-40
2021/05/30 11:04:26;;;;;;;4.18;2.92;;;24.60;53.20;;;;;;5049033;28;20021;-38
2021/05/30 11:06:52;;;;;;;7.25;3.20;;;24.60;52.70;;;;;;5049819;28;20084;-36
2021/05/30 11:09:18;;;;;;;6.68;3.25;;;24.60;52.60;;;;;;5032848;28;20036;-36
2021/05/30 11:11:43;;;;;;;5.03;3.20;;;24.70;53.00;;;;;;5031694;28;20033;-40
2021/05/30 11:14:13;;;;;;;4.00;3.00;;;24.60;52.50;;;;;;5050668;28;20020;-38
2021/05/30 11:16:46;;;;;;;4.80;2.83;;;24.70;52.60;;;;;;5031464;28;20372;-39
2021/05/30 11:19:14;;;;;;;3.35;2.83;;;24.70;52.90;;;;;;5034671;28;20029;-37
2021/05/30 11:21:43;;;;;;;3.67;2.85;;;24.70;52.40;;;;;;5053151;28;20421;-38
2021/05/30 11:24:19;;;;;;;4.25;2.72;;;24.70;52.30;;;;;;5048241;28;20055;-37
2021/05/30 11:27:01;;;;;;;2.70;2.50;;;24.70;52.40;;;;;;5048690;28;20107;-36
2021/05/30 11:29:28;;;;;;;4.60;2.53;;;24.70;52.60;;;;;;5047787;28;20017;-37
2021/05/30 11:31:54;;;;;;;4.38;2.45;;;24.60;52.70;;;;;;5047767;28;20025;-37
2021/05/30 11:34:19;;;;;;;2.63;2.42;;;24.60;52.60;;;;;;5048216;28;20083;-37
2021/05/30 11:36:45;;;;;;;3.08;2.72;;;24.60;52.80;;;;;;5050823;28;20452;-37
2021/05/30 11:39:12;;;;;;;2.88;2.50;;;24.50;53.60;;;;;;5048796;28;20021;-37
2021/05/30 11:41:58;;;;;;;2.80;2.55;;;24.60;52.80;;;;;;5044605;28;20047;-35
2021/05/30 11:44:25;;;;;;;4.40;2.50;;;24.60;52.20;;;;;;5047090;28;20438;-36
2021/05/30 11:46:57;;;;;;;2.75;2.50;;;24.60;52.80;;;;;;5047742;28;20517;-36
2021/05/30 11:49:28;;;;;;;3.63;2.50;;;24.60;52.60;;;;;;5046472;28;20033;-36
2021/05/30 11:52:05;;;;;;;2.97;2.50;;;24.50;52.50;;;;;;5047321;28;20032;-38
2021/05/30 11:54:34;;;;;;;2.63;2.33;;;24.60;52.50;;;;;;5048454;28;20044;-37
2021/05/30 11:57:05;;;;;;;4.13;2.10;;;24.60;52.50;;;;;;5050653;28;20021;-37
2021/05/30 11:59:40;;;;;;;4.32;2.20;;;24.60;52.10;;;;;;5053961;28;20099;-37
2021/05/30 12:02:07;;;;;;;3.42;1.75;;;24.70;52.00;;;;;;5052817;28;20033;-38
2021/05/30 12:04:41;;;;;;;2.20;2.03;;;24.60;51.70;;;;;;5052827;28;20033;-38
2021/05/30 12:07:14;;;;;;;1.90;1.80;;;24.60;52.20;;;;;;5053539;28;20028;-39
2021/05/30 12:09:49;;;;;;;2.53;1.90;;;24.60;52.10;;;;;;5054508;28;20128;-45
2021/05/30 12:12:35;;;;;;;2.13;1.92;;;24.60;52.00;;;;;;5052775;28;20029;-38
2021/05/30 12:15:03;;;;;;;2.22;1.90;;;24.60;52.00;;;;;;5053789;28;20131;-40
2021/05/30 12:17:28;;;;;;;4.25;1.58;;;24.60;52.60;;;;;;5053566;28;20075;-38
2021/05/30 12:19:54;;;;;;;2.58;1.63;;;24.60;51.90;;;;;;5053333;28;20596;-36
2021/05/30 12:22:21;;;;;;;1.80;1.70;;;24.50;52.20;;;;;;5051148;28;20033;-37
2021/05/30 12:24:47;;;;;;;1.80;1.70;;;24.50;52.20;;;;;;5037947;28;20089;-38
2021/05/30 12:27:13;;;;;;;1.98;1.73;;;24.50;52.30;;;;;;5054258;28;20044;-35
2021/05/30 12:29:40;;;;;;;2.78;1.70;;;24.60;52.20;;;;;;5036715;28;20039;-38
2021/05/30 12:32:05;;;;;;;1.65;1.55;;;24.60;52.00;;;;;;5036182;28;20051;-35
2021/05/30 12:34:35;;;;;;;1.60;1.50;;;24.70;52.00;;;;;;5053368;28;20479;-37
2021/05/30 12:37:00;;;;;;;1.85;1.75;;;24.60;52.00;;;;;;5053149;28;20538;-35
2021/05/30 12:39:27;;;;;;;1.67;1.55;;;24.70;51.90;;;;;;5057139;28;20028;-40
2021/05/30 12:42:02;;;;;;;1.70;1.60;;;24.70;51.60;;;;;;5052335;28;20037;-37
2021/05/30 12:44:52;;;;;;;1.73;1.63;;;24.70;51.60;;;;;;5054942;28;20102;-40
2021/05/30 12:47:23;;;;;;;1.77;1.67;;;24.80;51.40;;;;;;5056265;28;20439;-37
2021/05/30 12:49:54;;;;;;;1.95;1.85;;;24.80;51.10;;;;;;5052800;28;20158;-35